CST,Max TemperatureF,Mean TemperatureF,Min TemperatureF,Max Dew PointF,MeanDew PointF,Min DewpointF,Max Humidity, Mean Humidity, Min Humidity, Max Sea Level PressureIn, Mean Sea Level PressureIn, Min Sea Level PressureIn, Max VisibilityMiles, Mean VisibilityMiles, Min VisibilityMiles, Max Wind SpeedMPH, Mean Wind SpeedMPH, Max Gust SpeedMPH,PrecipitationIn, CloudCover, Events, WindDirDegrees
2011-12-1,37,24,10,29,20,7,84,69,45,30.64,30.40,29.98,10,10,10,32,19,47,0.00,5,,358
2011-12-2,41,26,10,22,16,7,92,72,45,30.59,30.22,30.01,10,10,10,25,10,32,0.00,0,,169
2011-12-3,30,25,20,28,25,19,100,93,80,30.20,30.05,29.96,10,2,0,28,13,33,0.41,8,Fog-Snow,358
2011-12-4,27,13,-1,19,12,1,96,83,69,30.60,30.28,30.10,10,8,1,22,8,31,0.00,0,,263
2011-12-5,19,6,-7,9,3,-9,96,77,65,30.66,30.60,30.51,10,10,9,21,10,,0.00,0,,314
2011-12-6,16,1,-15,7,-4,-18,91,81,68,30.59,30.40,30.25,10,10,6,13,7,,0.00,0,,235
2011-12-7,39,22,5,27,16,6,95,76,62,30.30,30.20,30.06,10,10,9,16,10,,0.00,0,,259
2011-12-8,30,21,11,28,19,9,95,89,84,30.38,30.25,30.13,10,8,3,16,5,,T,6,,44
2011-12-9,34,22,9,27,18,6,100,92,75,30.51,30.38,30.25,10,4,0,12,4,,0.00,5,Fog,167
2011-12-10,34,20,5,25,14,1,100,85,64,30.52,30.38,30.18,10,5,0,8,4,,0.00,1,Fog,240
2011-12-11,37,23,9,31,18,6,100,91,79,30.26,30.08,29.94,9,3,0,12,4,,0.00,0,Fog,151
2011-12-12,31,20,8,27,16,5,100,90,84,30.33,30.15,29.97,8,3,0,8,4,,0.00,4,Fog,24
2011-12-13,36,31,26,36,31,25,100,98,93,30.28,30.10,29.91,1,0,0,13,7,,0.02,,Fog,73
2011-12-14,43,38,32,34,32,25,100,90,62,30.09,29.85,29.76,10,4,0,18,5,,0.02,6,Fog,302
2011-12-15,55,40,23,27,21,16,78,58,28,30.38,30.28,30.11,10,10,10,18,9,,0.00,0,,214
2011-12-16,44,29,14,28,20,12,92,76,53,30.45,30.39,30.29,10,10,10,10,5,,0.00,0,,246
2011-12-17,47,34,21,30,23,18,85,71,48,30.48,30.39,30.27,10,10,10,14,9,,0.00,0,,246
2011-12-18,49,36,22,31,25,20,92,76,46,30.26,30.03,29.84,10,10,9,9,7,,0.00,0,,243
2011-12-19,35,30,25,29,25,19,88,76,66,30.27,30.13,29.86,10,10,8,26,15,33,0.00,6,,18
2011-12-20,36,31,25,24,20,17,79,69,50,30.26,30.03,29.82,10,10,10,14,9,,0.00,4,,265
2011-12-21,49,35,21,31,25,18,92,73,46,30.07,29.86,29.77,10,10,4,18,10,24,T,3,Snow,334
2011-12-22,33,22,10,31,23,7,100,84,56,30.55,30.28,30.04,10,6,2,24,16,30,T,5,Snow,11
2011-12-23,41,24,7,23,14,3,87,74,49,30.53,30.42,30.31,10,10,10,15,9,,0.00,0,,256
2011-12-24,49,33,17,25,19,13,84,67,32,30.49,30.43,30.34,10,10,10,12,9,,0.00,0,,260
2011-12-25,49,35,20,26,21,16,88,68,40,30.58,30.46,30.27,10,10,10,9,6,,0.00,0,,243
2011-12-26,51,37,22,25,21,19,92,62,32,30.26,30.09,29.95,10,10,10,18,9,,0.00,0,,274
2011-12-27,46,34,21,25,21,16,79,64,40,30.25,30.13,29.99,10,10,10,14,10,,0.00,1,,257
2011-12-28,56,40,24,26,23,19,78,60,30,30.08,29.99,29.91,10,10,10,14,8,,0.00,0,,253
2011-12-29,65,49,32,41,31,25,79,64,30,29.90,29.76,29.53,10,10,4,37,13,54,0.03,4,Rain,266
2011-12-30,53,42,30,28,24,20,85,57,27,30.01,29.89,29.74,10,10,10,16,12,25,0.00,0,,242
2011-12-31,56,40,24,36,27,17,96,73,25,30.33,29.81,29.53,10,9,2,43,17,54,0.05,3,Rain-Snow,299